createdAt,value
2022-10-25T00:00:05.664Z,14.12
2022-10-25T00:02:36.968Z,14.14
2022-10-25T00:05:04.643Z,14.18
2022-10-25T00:07:31.180Z,14.15
2022-10-25T00:09:57.953Z,14.18
2022-10-25T00:12:24.862Z,14.20
2022-10-25T00:14:51.638Z,14.23
2022-10-25T00:17:18.180Z,14.24
2022-10-25T00:19:44.961Z,14.25
2022-10-25T00:22:11.498Z,14.22
2022-10-25T00:24:38.187Z,14.21
2022-10-25T00:27:05.876Z,14.23
2022-10-25T00:29:32.494Z,14.23
2022-10-25T00:31:59.010Z,14.23
2022-10-25T00:34:25.525Z,14.23
2022-10-25T00:36:52.074Z,14.21
2022-10-25T00:39:18.829Z,14.19
2022-10-25T00:41:45.344Z,14.21
2022-10-25T00:44:40.978Z,14.22
2022-10-25T00:47:18.128Z,14.21
2022-10-25T00:49:47.102Z,14.19
2022-10-25T00:52:13.713Z,14.18
2022-10-25T00:54:47.838Z,14.19
2022-10-25T00:57:43.689Z,14.19
2022-10-25T01:00:10.855Z,14.20
2022-10-25T01:02:37.466Z,14.23
2022-10-25T01:05:04.983Z,14.28
2022-10-25T01:07:31.580Z,14.24
2022-10-25T01:09:58.343Z,14.24
2022-10-25T01:12:24.878Z,14.22
2022-10-25T01:14:52.618Z,14.24
2022-10-25T01:17:56.265Z,14.27
2022-10-25T01:20:50.200Z,14.29
2022-10-25T01:23:28.612Z,14.32
2022-10-25T01:25:58.251Z,14.36
2022-10-25T01:28:51.086Z,14.38
2022-10-25T01:31:53.085Z,14.38
2022-10-25T01:34:45.410Z,14.38
2022-10-25T01:37:20.231Z,14.38
2022-10-25T01:40:01.876Z,14.38
2022-10-25T01:42:57.365Z,14.35
2022-10-25T01:45:44.103Z,14.37
2022-10-25T01:48:24.246Z,14.38
2022-10-25T01:50:50.905Z,14.39
2022-10-25T01:53:17.454Z,14.37
2022-10-25T01:55:47.176Z,14.37
2022-10-25T01:58:52.553Z,14.39
2022-10-25T02:01:34.134Z,14.42
2022-10-25T02:04:17.489Z,14.35
2022-10-25T02:07:02.127Z,14.33
2022-10-25T02:09:36.332Z,14.28
2022-10-25T02:12:06.094Z,14.25
2022-10-25T02:14:37.939Z,14.22
2022-10-25T02:17:12.851Z,14.20
2022-10-25T02:19:44.596Z,14.20
2022-10-25T02:22:13.563Z,14.23
2022-10-25T02:24:44.572Z,14.22
2022-10-25T02:27:13.739Z,14.20
2022-10-25T02:29:41.623Z,14.22
2022-10-25T02:32:08.660Z,14.25
2022-10-25T02:34:35.297Z,14.23
2022-10-25T02:37:04.136Z,14.20
2022-10-25T02:39:31.694Z,14.23
2022-10-25T02:41:58.785Z,14.25
2022-10-25T02:44:25.321Z,14.21
2022-10-25T02:46:51.824Z,14.23
2022-10-25T02:49:18.570Z,14.23
2022-10-25T02:51:45.155Z,14.22
2022-10-25T02:54:13.335Z,14.24
2022-10-25T02:56:39.864Z,14.23
2022-10-25T02:59:06.366Z,14.24
2022-10-25T03:01:33.029Z,14.27
2022-10-25T03:03:59.586Z,14.25
2022-10-25T03:06:26.350Z,14.24
2022-10-25T03:08:52.895Z,14.23
2022-10-25T03:11:19.376Z,14.23
2022-10-25T03:13:46.386Z,14.23
2022-10-25T03:16:12.953Z,14.25
2022-10-25T03:18:39.426Z,14.26
2022-10-25T03:21:07.062Z,14.27
2022-10-25T03:23:34.417Z,14.29
2022-10-25T03:26:01.570Z,14.29
2022-10-25T03:28:29.295Z,14.30
2022-10-25T03:30:57.230Z,14.29
2022-10-25T03:33:25.007Z,14.32
2022-10-25T03:35:53.116Z,14.28
2022-10-25T03:38:19.870Z,14.26
2022-10-25T03:40:46.607Z,14.29
2022-10-25T03:43:13.413Z,14.23
2022-10-25T03:45:40.076Z,14.23
2022-10-25T03:48:06.750Z,14.19
2022-10-25T03:50:33.822Z,14.13
2022-10-25T03:53:00.386Z,14.13
2022-10-25T03:55:27.255Z,14.09
2022-10-25T03:57:53.759Z,14.10
2022-10-25T04:00:20.338Z,14.10
2022-10-25T04:02:47.298Z,14.10
2022-10-25T04:05:14.935Z,14.10
2022-10-25T04:07:41.427Z,14.14
2022-10-25T04:10:08.423Z,14.13
2022-10-25T04:12:34.911Z,14.15
2022-10-25T04:15:01.408Z,14.13
2022-10-25T04:17:27.930Z,14.15
2022-10-25T04:19:54.474Z,14.14
2022-10-25T04:22:21.510Z,14.15
2022-10-25T04:24:48.023Z,14.17
2022-10-25T04:27:14.497Z,14.18
2022-10-25T04:29:40.992Z,14.16
2022-10-25T04:32:07.818Z,14.20
2022-10-25T04:34:34.379Z,14.20
2022-10-25T04:37:01.264Z,14.22
2022-10-25T04:39:27.717Z,14.20
2022-10-25T04:41:54.240Z,14.25
2022-10-25T04:44:21.133Z,14.22
2022-10-25T04:46:48.896Z,14.22
2022-10-25T04:49:16.258Z,14.21
2022-10-25T04:51:43.291Z,14.24
2022-10-25T04:54:12.292Z,14.24
2022-10-25T04:56:39.270Z,14.24
2022-10-25T04:59:08.897Z,14.20
2022-10-25T05:01:35.531Z,14.19
2022-10-25T05:04:02.064Z,14.19
2022-10-25T05:06:28.558Z,14.18
2022-10-25T05:08:55.459Z,14.16
2022-10-25T05:11:23.867Z,14.14
2022-10-25T05:13:51.072Z,14.12
2022-10-25T05:16:24.446Z,14.06
2022-10-25T05:18:54.104Z,14.03
2022-10-25T05:21:22.331Z,14.01
2022-10-25T05:23:48.946Z,13.98
2022-10-25T05:26:18.318Z,14.02
2022-10-25T05:28:46.645Z,13.99
2022-10-25T05:31:16.125Z,14.00
2022-10-25T05:33:46.822Z,13.98
2022-10-25T05:36:14.791Z,13.92
2022-10-25T05:38:42.400Z,13.94
2022-10-25T05:41:11.742Z,13.97
2022-10-25T05:43:38.392Z,13.98
2022-10-25T05:46:08.890Z,14.00
2022-10-25T05:48:36.916Z,14.06
2022-10-25T05:51:45.552Z,14.12
2022-10-25T05:54:14.707Z,14.10
2022-10-25T05:56:42.966Z,14.15
2022-10-25T05:59:11.949Z,14.18
2022-10-25T06:01:46.727Z,14.19
2022-10-25T06:04:14.522Z,14.24
2022-10-25T06:06:41.912Z,14.26
2022-10-25T06:09:09.287Z,14.24
2022-10-25T06:11:36.916Z,14.23
2022-10-25T06:14:03.946Z,14.24
2022-10-25T06:16:31.040Z,14.24
2022-10-25T06:18:57.858Z,14.26
2022-10-25T06:21:27.298Z,14.25
2022-10-25T06:23:54.823Z,14.25
2022-10-25T06:26:27.574Z,14.21
2022-10-25T06:28:57.057Z,14.15
2022-10-25T06:31:24.406Z,14.09
2022-10-25T06:33:51.295Z,14.04
2022-10-25T06:36:20.203Z,14.01
2022-10-25T06:38:47.728Z,13.96
2022-10-25T06:41:22.887Z,13.96
2022-10-25T06:43:49.768Z,13.91
2022-10-25T06:46:25.167Z,13.89
2022-10-25T06:48:53.261Z,13.89
2022-10-25T06:51:21.631Z,13.89
2022-10-25T06:53:48.217Z,13.89
2022-10-25T06:56:15.268Z,13.91
2022-10-25T06:58:42.425Z,13.88
2022-10-25T07:01:17.143Z,13.87
2022-10-25T07:03:44.398Z,13.89
2022-10-25T07:06:16.162Z,13.83
2022-10-25T07:08:45.814Z,13.81
2022-10-25T07:11:17.978Z,13.88
2022-10-25T07:13:44.812Z,13.85
2022-10-25T07:16:13.945Z,13.85
2022-10-25T07:18:42.660Z,13.85
2022-10-25T07:21:11.613Z,13.86
2022-10-25T07:23:42.370Z,13.89
2022-10-25T07:26:14.698Z,13.96
2022-10-25T07:28:43.352Z,13.98
2022-10-25T07:31:21.356Z,14.00
2022-10-25T07:33:49.617Z,14.05
2022-10-25T07:36:16.144Z,14.12
2022-10-25T07:38:42.710Z,14.15
2022-10-25T07:41:10.142Z,14.22
2022-10-25T07:43:36.770Z,14.29
2022-10-25T07:46:04.102Z,14.40
2022-10-25T07:48:30.749Z,14.50
2022-10-25T07:50:57.294Z,14.59
2022-10-25T07:53:23.894Z,14.67
2022-10-25T07:55:52.094Z,14.72
2022-10-25T07:58:19.259Z,14.73
2022-10-25T08:00:46.620Z,14.73
2022-10-25T08:03:14.724Z,14.79
2022-10-25T08:05:44.261Z,14.82
2022-10-25T08:08:11.326Z,14.83
2022-10-25T08:10:37.838Z,14.82
2022-10-25T08:13:04.371Z,14.83
2022-10-25T08:15:30.851Z,14.87
2022-10-25T08:18:01.840Z,14.91
2022-10-25T08:20:49.527Z,14.97
2022-10-25T08:23:16.004Z,15.12
2022-10-25T08:25:42.872Z,15.18
2022-10-25T08:28:09.442Z,15.27
2022-10-25T08:30:36.041Z,15.44
2022-10-25T08:33:02.663Z,15.59
2022-10-25T08:35:29.701Z,15.73
2022-10-25T08:37:56.226Z,15.92
2022-10-25T08:40:46.073Z,16.04
2022-10-25T08:43:15.702Z,15.96
2022-10-25T08:45:58.430Z,15.92
2022-10-25T08:48:32.966Z,15.87
2022-10-25T08:51:10.693Z,15.83
2022-10-25T08:53:42.871Z,15.78
2022-10-25T08:56:17.290Z,15.77
2022-10-25T08:58:53.789Z,15.79
2022-10-25T09:01:29.297Z,15.80
2022-10-25T09:03:56.070Z,15.80
2022-10-25T09:06:28.462Z,15.79
2022-10-25T09:09:01.023Z,15.76
2022-10-25T09:11:54.291Z,15.85
2022-10-25T09:14:33.095Z,15.81
2022-10-25T09:17:14.910Z,15.86
2022-10-25T09:20:02.342Z,15.83
2022-10-25T09:22:36.681Z,15.80
2022-10-25T09:25:12.531Z,15.75
2022-10-25T09:27:48.099Z,15.76
2022-10-25T09:30:15.071Z,15.82
2022-10-25T09:33:03.009Z,15.83
2022-10-25T09:35:45.302Z,15.90
2022-10-25T09:38:22.359Z,16.00
2022-10-25T09:41:03.831Z,16.11
2022-10-25T09:43:37.611Z,16.23
2022-10-25T09:46:13.966Z,16.25
2022-10-25T09:48:54.639Z,16.20
2022-10-25T09:51:39.565Z,16.12
2022-10-25T09:54:18.783Z,16.12
2022-10-25T09:56:45.303Z,16.09
2022-10-25T09:59:16.013Z,16.11
2022-10-25T10:01:43.158Z,16.03
2022-10-25T10:04:24.749Z,16.05
2022-10-25T10:06:54.168Z,16.15
2022-10-25T10:09:21.749Z,16.15
2022-10-25T10:11:52.762Z,16.15
2022-10-25T10:14:28.276Z,16.13
2022-10-25T10:16:58.118Z,16.19
2022-10-25T10:19:31.815Z,16.28
2022-10-25T10:22:07.218Z,16.37
2022-10-25T10:24:37.800Z,16.46
2022-10-25T10:27:23.530Z,16.49
2022-10-25T10:29:59.562Z,16.51
2022-10-25T10:32:29.363Z,16.53
2022-10-25T10:34:58.306Z,16.50
2022-10-25T10:37:26.504Z,16.54
2022-10-25T10:40:22.544Z,16.53
2022-10-25T10:42:49.182Z,16.45
2022-10-25T10:45:18.342Z,16.38
2022-10-25T10:47:53.435Z,16.31
2022-10-25T10:50:22.908Z,16.21
2022-10-25T10:53:07.421Z,16.16
2022-10-25T10:55:37.368Z,16.23
2022-10-25T10:58:03.895Z,16.20
2022-10-25T11:00:32.941Z,16.20
2022-10-25T11:02:59.461Z,16.19
2022-10-25T11:05:53.470Z,16.16
2022-10-25T11:08:21.082Z,16.17
2022-10-25T11:10:47.570Z,16.15
2022-10-25T11:13:15.440Z,16.21
2022-10-25T11:15:44.603Z,16.28
2022-10-25T11:18:13.740Z,16.43
2022-10-25T11:20:53.672Z,16.54
2022-10-25T11:23:33.862Z,16.66
2022-10-25T11:26:18.500Z,16.74
2022-10-25T11:29:10.211Z,16.81
2022-10-25T11:31:55.498Z,16.89
2022-10-25T11:34:40.720Z,17.04
2022-10-25T11:37:20.165Z,17.12
2022-10-25T11:39:56.056Z,17.03
2022-10-25T11:42:49.999Z,16.88
2022-10-25T11:45:41.126Z,16.77
2022-10-25T11:48:50.731Z,16.70
2022-10-25T11:51:59.902Z,16.73
2022-10-25T11:54:52.649Z,16.83
2022-10-25T11:57:57.832Z,17.08
2022-10-25T12:00:41.221Z,17.25
2022-10-25T12:03:19.714Z,17.30
2022-10-25T12:06:16.634Z,17.17
2022-10-25T12:09:06.979Z,17.08
2022-10-25T12:11:45.327Z,16.88
2022-10-25T12:14:15.780Z,16.84
2022-10-25T12:16:43.456Z,16.81
2022-10-25T12:19:24.658Z,16.79
2022-10-25T12:22:02.157Z,16.77
2022-10-25T12:24:44.256Z,16.82
2022-10-25T12:27:12.513Z,16.81
2022-10-25T12:29:46.786Z,16.87
2022-10-25T12:32:23.540Z,16.94
2022-10-25T12:34:53.790Z,17.09
2022-10-25T12:37:51.982Z,17.20
2022-10-25T12:43:24.566Z,17.05
2022-10-25T12:46:34.592Z,16.95
2022-10-25T12:49:49.166Z,16.82
2022-10-25T12:52:42.111Z,16.79
2022-10-25T12:55:36.440Z,16.71
2022-10-25T12:58:34.996Z,16.68
2022-10-25T13:01:13.702Z,16.66
2022-10-25T13:04:08.200Z,16.63
2022-10-25T13:06:38.262Z,16.59
2022-10-25T13:09:08.876Z,16.64
2022-10-25T13:11:39.272Z,16.70
2022-10-25T13:14:18.936Z,16.89
2022-10-25T13:16:45.588Z,17.14
2022-10-25T13:19:49.427Z,17.33
2022-10-25T13:22:35.924Z,17.33
2022-10-25T13:25:08.418Z,17.20
2022-10-25T13:27:36.765Z,17.10
2022-10-25T13:30:06.240Z,17.07
2022-10-25T13:32:37.130Z,17.04
2022-10-25T13:35:22.341Z,17.01
2022-10-25T13:37:52.798Z,16.93
2022-10-25T13:40:23.737Z,16.93
2022-10-25T13:43:21.038Z,16.94
2022-10-25T13:45:54.921Z,16.98
2022-10-25T13:48:34.543Z,17.02
2022-10-25T13:51:16.905Z,17.08
2022-10-25T13:53:50.398Z,17.06
2022-10-25T13:56:22.682Z,17.15
2022-10-25T13:58:51.463Z,17.16
2022-10-25T14:01:18.293Z,17.08
2022-10-25T14:04:06.034Z,17.13
2022-10-25T14:06:37.044Z,17.13
2022-10-25T14:09:34.044Z,17.15
2022-10-25T14:12:00.947Z,17.12
2022-10-25T14:14:53.072Z,17.09
2022-10-25T14:17:41.598Z,17.05
2022-10-25T14:20:18.143Z,17.02
2022-10-25T14:22:53.057Z,16.95
2022-10-25T14:25:24.317Z,16.85
2022-10-25T14:28:12.504Z,16.79
2022-10-25T14:30:52.463Z,16.75
2022-10-25T14:33:18.905Z,16.69
2022-10-25T14:35:48.585Z,16.65
2022-10-25T14:38:23.883Z,16.58
2022-10-25T14:40:57.279Z,16.59
2022-10-25T14:43:36.224Z,16.56
2022-10-25T14:46:05.685Z,16.50
2022-10-25T14:48:33.455Z,16.51
2022-10-25T14:51:05.903Z,16.51
2022-10-25T14:53:32.881Z,16.59
2022-10-25T14:56:05.085Z,16.61
2022-10-25T14:58:42.838Z,16.69
2022-10-25T15:01:12.500Z,16.67
2022-10-25T15:03:43.845Z,16.62
2022-10-25T15:06:13.368Z,16.62
2022-10-25T15:08:42.249Z,16.63
2022-10-25T15:11:15.679Z,16.61
2022-10-25T15:13:45.130Z,16.56
2022-10-25T15:16:49.946Z,16.58
2022-10-25T15:19:20.959Z,16.57
2022-10-25T15:21:52.908Z,16.55
2022-10-25T15:24:28.736Z,16.50
2022-10-25T15:27:01.150Z,16.49
2022-10-25T15:29:40.560Z,16.47
2022-10-25T15:32:13.019Z,16.43
2022-10-25T15:34:42.343Z,16.39
2022-10-25T15:37:12.577Z,16.36
2022-10-25T15:39:39.513Z,16.38
2022-10-25T15:42:06.570Z,16.32
2022-10-25T15:44:33.810Z,16.27
2022-10-25T15:47:00.471Z,16.23
2022-10-25T15:49:27.063Z,16.24
2022-10-25T15:51:55.414Z,16.22
2022-10-25T15:54:23.592Z,16.20
2022-10-25T15:56:51.789Z,16.17
2022-10-25T15:59:18.672Z,16.14
2022-10-25T16:01:51.682Z,16.11
2022-10-25T16:04:19.261Z,16.09
2022-10-25T16:06:47.046Z,16.08
2022-10-25T16:09:13.563Z,16.11
2022-10-25T16:11:44.920Z,16.06
2022-10-25T16:14:22.887Z,16.06
2022-10-25T16:16:49.958Z,16.03
2022-10-25T16:19:18.079Z,16.01
2022-10-25T16:21:45.246Z,15.95
2022-10-25T16:24:12.818Z,15.91
2022-10-25T16:26:42.902Z,15.88
2022-10-25T16:29:17.819Z,15.79
2022-10-25T16:31:44.426Z,15.66
2022-10-25T16:34:11.733Z,15.56
2022-10-25T16:36:38.685Z,15.48
2022-10-25T16:39:08.203Z,15.40
2022-10-25T16:41:38.768Z,15.33
2022-10-25T16:44:05.564Z,15.25
2022-10-25T16:46:32.198Z,15.21
2022-10-25T16:49:01.846Z,15.15
2022-10-25T16:51:28.911Z,15.08
2022-10-25T16:53:55.571Z,15.03
2022-10-25T16:56:22.129Z,14.96
2022-10-25T16:58:48.603Z,14.93
2022-10-25T17:01:22.778Z,14.88
2022-10-25T17:03:50.702Z,14.83
2022-10-25T17:06:39.734Z,14.78
2022-10-25T17:09:04.941Z,14.73
2022-10-25T17:11:31.412Z,14.69
2022-10-25T17:13:57.899Z,14.63
2022-10-25T17:16:24.434Z,14.60
2022-10-25T17:18:50.902Z,14.59
2022-10-25T17:21:18.166Z,14.56
2022-10-25T17:23:44.846Z,14.53
2022-10-25T17:26:14.280Z,14.50
2022-10-25T17:28:44.539Z,14.47
2022-10-25T17:31:13.441Z,14.43
2022-10-25T17:33:41.376Z,14.40
2022-10-25T17:36:17.135Z,14.34
2022-10-25T17:38:44.408Z,14.32
2022-10-25T17:41:11.889Z,14.29
2022-10-25T17:46:09.379Z,14.21
2022-10-25T17:48:35.896Z,14.18
2022-10-25T17:51:05.329Z,14.14
2022-10-25T17:53:32.274Z,14.08
2022-10-25T17:55:59.446Z,14.04
2022-10-25T17:58:25.963Z,14.00
2022-10-25T18:00:54.561Z,13.98
2022-10-25T18:03:21.540Z,13.95
2022-10-25T18:05:48.530Z,13.93
2022-10-25T18:08:15.263Z,13.89
2022-10-25T18:10:41.780Z,13.87
2022-10-25T18:13:08.300Z,13.83
2022-10-25T18:15:35.911Z,13.79
2022-10-25T18:18:02.462Z,13.77
2022-10-25T18:20:28.985Z,13.78
2022-10-25T18:22:55.661Z,13.76
2022-10-25T18:25:22.151Z,13.76
2022-10-25T18:27:48.893Z,13.74
2022-10-25T18:30:16.062Z,13.72
2022-10-25T18:32:42.607Z,13.66
2022-10-25T18:35:09.518Z,13.61
2022-10-25T18:37:36.009Z,13.56
2022-10-25T18:40:02.500Z,13.53
2022-10-25T18:42:29.041Z,13.51
2022-10-25T18:44:55.534Z,13.49
2022-10-25T18:47:22.096Z,13.49
2022-10-25T18:49:48.914Z,13.47
2022-10-25T18:52:15.418Z,13.48
2022-10-25T18:54:41.966Z,13.46
2022-10-25T18:57:08.549Z,13.43
2022-10-25T18:59:35.074Z,13.37
2022-10-25T19:02:01.672Z,13.27
2022-10-25T19:04:28.348Z,13.23
2022-10-25T19:06:54.888Z,13.22
2022-10-25T19:09:23.958Z,13.20
2022-10-25T19:11:50.467Z,13.23
2022-10-25T19:14:16.998Z,13.27
2022-10-25T19:16:43.802Z,13.24
2022-10-25T19:19:12.012Z,13.18
2022-10-25T19:21:38.596Z,13.17
2022-10-25T19:24:05.544Z,13.16
2022-10-25T19:26:32.051Z,13.15
2022-10-25T19:29:00.437Z,13.14
2022-10-25T19:31:27.781Z,13.12
2022-10-25T19:33:56.385Z,13.12
2022-10-25T19:36:22.924Z,13.07
2022-10-25T19:38:49.538Z,13.04
2022-10-25T19:41:18.329Z,13.04
2022-10-25T19:43:45.643Z,13.03
2022-10-25T19:46:13.217Z,13.02
2022-10-25T19:48:39.852Z,13.01
2022-10-25T19:51:12.246Z,13.00
2022-10-25T19:53:39.348Z,12.97
2022-10-25T19:56:12.688Z,12.95
2022-10-25T19:58:39.544Z,12.90
2022-10-25T20:01:13.163Z,12.88
2022-10-25T20:03:40.967Z,12.88
2022-10-25T20:06:11.226Z,12.89
2022-10-25T20:08:39.569Z,12.88
2022-10-25T20:11:07.277Z,12.86
2022-10-25T20:13:34.207Z,12.86
2022-10-25T20:16:01.299Z,12.88
2022-10-25T20:18:33.821Z,12.85
2022-10-25T20:21:03.830Z,12.81
2022-10-25T20:23:30.580Z,12.73
2022-10-25T20:25:57.079Z,12.73
2022-10-25T20:28:24.275Z,12.74
2022-10-25T20:30:51.423Z,12.71
2022-10-25T20:33:20.346Z,12.71
2022-10-25T20:35:46.943Z,12.69
2022-10-25T20:38:14.394Z,12.67
2022-10-25T20:40:41.025Z,12.67
2022-10-25T20:43:08.286Z,12.66
2022-10-25T20:45:34.822Z,12.67
2022-10-25T20:48:01.687Z,12.66
2022-10-25T20:50:29.460Z,12.65
2022-10-25T20:53:09.687Z,12.66
2022-10-25T20:55:36.964Z,12.65
2022-10-25T20:58:03.490Z,12.62
2022-10-25T21:00:30.000Z,12.62
2022-10-25T21:02:56.543Z,12.65
2022-10-25T21:05:23.020Z,12.65
2022-10-25T21:07:49.891Z,12.63
2022-10-25T21:10:16.566Z,12.59
2022-10-25T21:12:43.120Z,12.55
2022-10-25T21:15:12.079Z,12.48
2022-10-25T21:17:39.135Z,12.45
2022-10-25T21:20:06.594Z,12.42
2022-10-25T21:22:33.180Z,12.39
2022-10-25T21:25:00.027Z,12.39
2022-10-25T21:27:26.531Z,12.37
2022-10-25T21:29:53.005Z,12.37
2022-10-25T21:32:19.673Z,12.36
2022-10-25T21:34:46.249Z,12.36
2022-10-25T21:37:13.473Z,12.35
2022-10-25T21:39:40.503Z,12.33
2022-10-25T21:42:07.121Z,12.29
2022-10-25T21:44:33.668Z,12.30
2022-10-25T21:47:00.183Z,12.32
2022-10-25T21:49:26.702Z,12.33
2022-10-25T21:51:53.199Z,12.32
2022-10-25T21:54:21.723Z,12.32
2022-10-25T21:56:52.482Z,12.35
2022-10-25T21:59:20.092Z,12.35
2022-10-25T22:01:46.901Z,12.31
2022-10-25T22:04:13.959Z,12.29
2022-10-25T22:06:40.478Z,12.24
2022-10-25T22:09:07.659Z,12.22
2022-10-25T22:11:36.563Z,12.20
2022-10-25T22:14:10.548Z,12.20
2022-10-25T22:16:37.087Z,12.21
2022-10-25T22:19:12.363Z,12.23
2022-10-25T22:21:39.796Z,12.23
2022-10-25T22:24:08.552Z,12.23
2022-10-25T22:26:36.927Z,12.21
2022-10-25T22:29:03.678Z,12.20
2022-10-25T22:31:31.000Z,12.19
2022-10-25T22:34:00.126Z,12.16
2022-10-25T22:36:29.862Z,12.18
2022-10-25T22:38:57.058Z,12.19
2022-10-25T22:41:25.866Z,12.19
2022-10-25T22:43:52.496Z,12.20
2022-10-25T22:46:27.663Z,12.22
2022-10-25T22:48:56.394Z,12.21
2022-10-25T22:51:24.155Z,12.21
2022-10-25T22:53:50.753Z,12.23
2022-10-25T22:56:19.489Z,12.27
2022-10-25T22:58:51.857Z,12.23
2022-10-25T23:01:25.598Z,12.23
2022-10-25T23:03:54.783Z,12.27
2022-10-25T23:06:33.001Z,12.28
2022-10-25T23:09:01.477Z,12.30
2022-10-25T23:11:36.566Z,12.32
2022-10-25T23:14:05.200Z,12.31
2022-10-25T23:16:31.778Z,12.32
2022-10-25T23:18:58.603Z,12.33
2022-10-25T23:21:27.511Z,12.31
2022-10-25T23:23:55.071Z,12.28
2022-10-25T23:26:24.373Z,12.27
2022-10-25T23:28:51.615Z,12.26
2022-10-25T23:31:18.631Z,12.24
2022-10-25T23:33:45.592Z,12.21
2022-10-25T23:36:15.620Z,12.16
2022-10-25T23:38:47.177Z,12.10
2022-10-25T23:41:13.662Z,12.09
2022-10-25T23:43:40.482Z,12.09
2022-10-25T23:46:08.273Z,12.03
2022-10-25T23:48:35.519Z,12.06
2022-10-25T23:51:07.689Z,12.01
2022-10-25T23:53:35.570Z,11.96
2022-10-25T23:56:03.638Z,11.90
2022-10-25T23:58:30.896Z,11.89
